NCAR-RAP Real-Time Weather Data

Output produced by METARs form (24 January 2022  23:42 UTC)
found at http://weather.rap.ucar.edu/surface/
 
KPUB 242253Z 15007KT 10SM CLR 11/M10 A2989 RMK AO2 SLP125 T01061100
KPUB 242153Z AUTO 19007KT 10SM CLR 11/M10 A2989 RMK AO2 SLP124 T01061100 $
KPUB 242053Z VRB04KT 10SM CLR 11/M11 A2989 RMK AO2 SLP127 T01061106 58028 $
KPUB 241953Z 15008KT 10SM CLR 11/M09 A2992 RMK AO2 SLP135 T01061089 $
KPUB 241853Z 12006KT 10SM CLR 09/M08 A2996 RMK AO2 SLP147 T00941083 $
KPUB 241753Z 16003KT 10SM CLR 08/M08 A2999 RMK AO2 SLP163 T00831078 10083 21061 50013 $
KPUB 241653Z 25005KT 10SM CLR 06/M06 A2999 RMK AO2 SLP163 T00611056 $
KPUB 241553Z 22004KT 10SM CLR 02/M04 A2998 RMK AO2 SLP162 T00171039 $